Terminal Aerodrome Forecast
Issued by NWS

Current Version | Previous Version | Text Only | Print | Product List | Glossary On
Versions: 1 2 3 4 5 6 7 8 9 10 11 12 13 14 15
000
FTUS43 KJKL 251742 AAA
TAFSJS
TAF AMD
KSJS 251742Z 2518/2618 29007KT P6SM SCT025 OVC045
     FM252300 VRB04KT P6SM SCT120
     FM260700 VRB03KT P6SM BKN100
     FM261500 VRB05KT P6SM SCT070=

USA.gov is the U.S. government's official web portal to all federal, state and local government web resources and services.